KIIB

Independence Municipal Airport

Independence, Iowa, USA
METAR KIIB 240155Z AUTO 13006KT 10SM CLR 23/18 A3011 RMK AO2 T02250175
Observed Flight Rules
May-24 @ 01:55 UTC (15 minutes ago) Visual Flight Rules
Wind Visibility Clouds
130° at 6 knots 10 miles
  • Clear skies
Temperatures Readings
Current 23°C / 73°F
Dewpoint 18°C / 64°F
Humidity 74%
Altimeter 30.11" Hg
Pressure 1020 hPa
Elevation 298
METAR KIIB 240155Z AUTO 13006KT 10SM CLR 23/18 A3011 RMK AO2 T02250175
Observed Flight Rules
May-24 @ 01:55 UTC
(15 minutes ago)
VFR
Wind Visibility
130° at 6 knots 10 miles
Clouds
  • Clear skies
Temperature Dewpoint
23°C / 73°F 18°C / 64°F
Humidity Altimeter Pressure
74% 30.11" Hg 1020 hPa